Hovedside
METAR-TAF:

METAR-TAF

Lufthavner :

Bodø, Norge

Bodø lufthavn

breddegrad: 67-16N, lengdegrad: 014-22E, høyde over havet: 1 m

Gjeldene værobservasjon

Denne rapporten ble laget for 20 minutter siden, klokken 10:20 UTC
Vind 10 kt fra Øst
Temperatur 18°C
Luftfuktighet 52%
Trykk 1018 hPa
Sikt 10 km eller mer
Få skyer i en høyde av 5000 ft

METAR: ENBO 211020Z 08010KT 9999 FEW050 18/08 Q1018 BECMG 02010KT

Tid: 12:40 (10:40 UTC)

Varsel

Varsel gyldig fra 21. klokken 06 UTC til 22. klokken 06 UTC
Vind 8 kt fra Øst
Sikt 10 km eller mer
ingen skyer under 1500 m og ingen bygeskyer
Blir
fra 21. klokken 12 UTC til 21. klokken 14 UTC
Vind 10 kt fra Nord-nordøst
Blir
fra 21. klokken 18 UTC til 21. klokken 20 UTC
Vind 8 kt fra Øst

TAF: ENBO 2106/2206 09008KT CAVOK BECMG 2112/2114 02010KT BECMG 2118/2120 09008KT

Værobservasjoner og værvarsel for over 4000 flyplasser (METAR- og TAF-rapporter).

Tilgjengelige stasjoner er representert av de røde og gule prikkene på kartet.

Hold musepekeren over prikken for å se navnet på stasjonen.

Klikk så for å se værobservasjoner og -varsler.

For å forandre kartet kan du klikke på den grønne knappen med svart kryss for å zoome inn, på den grønne knappen med strek for å zoome ut, eller på de grønne pilene for å se tilstøtende kart.


METAR-TAF: